createdAt,value
2016-11-09T20:02:07.176Z,70.62
2016-11-09T20:03:07.241Z,70.72
2016-11-09T20:04:07.296Z,69.85
2016-11-09T20:05:07.361Z,71.59
2016-11-09T20:06:07.417Z,70.98
2016-11-09T20:07:07.456Z,68.59
2016-11-09T20:08:07.503Z,69.85
2016-11-09T20:09:07.577Z,70.5
2016-11-09T20:10:08.114Z,69.24
2016-11-09T20:11:07.649Z,68.98
2016-11-09T20:12:07.737Z,69.17
2016-11-09T20:13:07.767Z,69.85
2016-11-09T20:14:08.365Z,69.24
2016-11-09T20:15:07.896Z,70.1
2016-11-09T20:16:07.918Z,69.72
2016-11-09T20:17:07.989Z,70.75
2016-11-09T20:18:08.035Z,70.2
2016-11-09T20:19:08.080Z,70.01
2016-11-09T20:20:08.142Z,70.3
2016-11-09T20:21:08.191Z,69.24
2016-11-09T20:22:38.717Z,70.88
2016-11-09T20:23:38.767Z,70.17
2016-11-09T20:24:39.343Z,71.91
2016-11-09T20:25:38.831Z,73.16
2016-11-09T20:26:38.859Z,71.62
2016-11-09T20:27:38.898Z,72.55
2016-11-09T20:28:38.982Z,73.32
2016-11-09T20:29:39.580Z,74.44
2016-11-09T20:30:39.067Z,73.19
2016-11-09T20:31:39.120Z,74.16
2016-11-09T20:32:39.191Z,74.51
2016-11-09T20:33:39.223Z,74.89
2016-11-09T20:34:39.271Z,74.99
2016-11-09T20:35:39.322Z,75.57
2016-11-09T20:36:39.382Z,75.57
2016-11-09T20:37:39.998Z,75.18
2016-11-09T20:38:40.034Z,75.51
2016-11-09T20:39:39.527Z,73.86
2016-11-09T20:40:39.570Z,75.31
2016-11-09T20:41:39.642Z,75.41
2016-11-09T20:42:39.667Z,74.64
2016-11-09T20:43:39.783Z,73.38
2016-11-09T20:44:39.786Z,74.87
2016-11-09T20:45:40.382Z,73.22
2016-11-09T20:46:39.898Z,72.55
2016-11-09T20:47:39.951Z,73.32
2016-11-09T20:48:39.985Z,73.32
2016-11-09T20:49:40.041Z,74.68
2016-11-09T20:50:40.101Z,74.77
2016-11-09T20:51:40.183Z,76.47
2016-11-09T20:52:40.187Z,73.9
2016-11-09T20:53:40.250Z,73.13
2016-11-09T20:54:40.298Z,75.45
2016-11-09T20:55:40.359Z,74.54
2016-11-09T20:56:40.420Z,74.38
2016-11-09T20:57:40.460Z,74.96
2016-11-09T20:58:40.520Z,75.22
2016-11-09T20:59:41.114Z,74.77
2016-11-09T21:00:40.617Z,74.68
2016-11-09T21:01:40.652Z,73.61
2016-11-09T21:02:40.716Z,73.9
2016-11-09T21:03:40.750Z,73.77
2016-11-09T21:04:40.791Z,73.09
2016-11-09T21:05:40.859Z,72.9
2016-11-09T21:06:41.469Z,73.9
2016-11-09T21:07:40.975Z,75.02
2016-11-09T21:08:41.042Z,73.38
2016-11-09T21:09:41.066Z,73.77
2016-11-09T21:10:41.121Z,74.93
2016-11-09T21:11:41.184Z,74.93
2016-11-09T21:12:41.221Z,75.22
2016-11-09T21:13:41.299Z,73.28
2016-11-09T21:14:41.352Z,72.8
2016-11-09T21:15:41.369Z,73.77
2016-11-09T21:16:41.417Z,74.93
2016-11-09T21:17:41.486Z,75.22
2016-11-09T21:18:41.552Z,74.83
2016-11-09T21:19:42.134Z,75.57
2016-11-09T21:20:42.161Z,75.89
2016-11-09T21:21:41.701Z,75.89
2016-11-09T21:22:41.746Z,76.47
2016-11-09T21:23:41.809Z,75.6
2016-11-09T21:24:41.861Z,75.79
2016-11-09T21:25:41.874Z,74.73
2016-11-09T21:26:41.927Z,74.16
2016-11-09T21:27:42.000Z,75.79
2016-11-09T21:28:42.034Z,76.05
2016-11-09T21:29:42.660Z,76.47
2016-11-09T21:30:42.144Z,76.47
2016-11-09T21:31:42.220Z,76.95
2016-11-09T21:32:42.242Z,75.89
2016-11-09T21:33:42.324Z,76.57
2016-11-09T21:34:42.335Z,76.57
2016-11-09T21:35:42.407Z,73.86
2016-11-09T21:36:42.461Z,76.03
2016-11-09T21:37:42.508Z,75.35
2016-11-09T21:38:42.553Z,74.68
2016-11-09T21:39:43.114Z,74.58
2016-11-09T21:40:42.685Z,75.84
2016-11-09T21:41:42.714Z,75.99
2016-11-09T21:42:42.757Z,75.41
2016-11-09T21:43:42.826Z,74.77
2016-11-09T21:44:42.886Z,74.29
2016-11-09T21:45:42.944Z,74.73
2016-11-09T21:46:42.979Z,75.41
2016-11-09T21:47:43.025Z,74.48
2016-11-09T21:48:43.067Z,73.9
2016-11-09T21:49:43.124Z,73.32
2016-11-09T21:50:43.166Z,75.84
2016-11-09T21:51:43.252Z,75.64
2016-11-09T21:52:43.286Z,74.19
2016-11-09T21:53:43.316Z,72.94
2016-11-09T21:54:43.388Z,72.71
2016-11-09T21:55:43.439Z,73.58
2016-11-09T21:56:43.505Z,74.64
2016-11-09T21:57:43.539Z,74.93
2016-11-09T21:58:43.593Z,75.26
2016-11-09T21:59:43.676Z,75.54
2016-11-09T22:00:43.705Z,75.02
2016-11-09T22:01:43.743Z,75.12
2016-11-09T22:02:44.308Z,74.38
2016-11-09T22:03:43.877Z,73.86
2016-11-09T22:04:43.906Z,73.8
2016-11-09T22:05:43.991Z,74.58
2016-11-09T22:06:44.029Z,74.1
2016-11-09T22:07:44.053Z,73.8
2016-11-09T22:08:44.114Z,74.77
2016-11-09T22:09:44.165Z,74.96
2016-11-09T22:10:44.245Z,75.26
2016-11-09T22:11:44.263Z,75.16
2016-11-09T22:12:44.358Z,75.84
2016-11-09T22:13:44.369Z,74.96
2016-11-09T22:14:44.458Z,75.06
2016-11-09T22:15:44.465Z,74.77
2016-11-09T22:16:44.531Z,75.06
2016-11-09T22:17:44.547Z,74
2016-11-09T22:18:44.649Z,74.1
2016-11-09T22:19:44.678Z,74.35
2016-11-09T22:20:44.730Z,74.93
2016-11-09T22:21:44.787Z,75.31
2016-11-09T22:22:44.845Z,75.79
2016-11-09T22:23:44.903Z,76.09
2016-11-09T22:24:44.928Z,75.51
2016-11-09T22:25:45.490Z,76.28
2016-11-09T22:26:45.065Z,76.95
2016-11-09T22:27:45.060Z,76.28
2016-11-09T22:28:45.142Z,76.95
2016-11-09T22:29:45.191Z,76.86
2016-11-09T22:30:45.224Z,76.09
2016-11-09T22:31:45.277Z,75.12
2016-11-09T22:32:45.338Z,75.31
2016-11-09T22:33:45.379Z,75.35
2016-11-09T22:34:45.441Z,74.96
2016-11-09T22:35:45.501Z,73.42
2016-11-09T22:36:46.080Z,74.73
2016-11-09T22:37:45.587Z,74.83
2016-11-09T22:38:45.847Z,74.93
2016-11-09T22:39:45.702Z,73.22
2016-11-09T22:40:45.768Z,72.9
2016-11-09T22:41:45.836Z,73.96
2016-11-09T22:42:45.869Z,73.83
2016-11-09T22:43:45.883Z,73.35
2016-11-09T22:44:45.980Z,74.06
2016-11-09T22:45:45.986Z,73.86
2016-11-09T22:46:46.078Z,73.86
2016-11-09T22:47:46.107Z,74.06
2016-11-09T22:48:46.675Z,73.67
2016-11-09T22:49:46.214Z,73.86
2016-11-09T22:50:46.271Z,74.06
2016-11-09T22:51:46.329Z,74.93
2016-11-09T22:52:46.408Z,74.06
2016-11-09T22:53:46.431Z,75.12
2016-11-09T22:54:46.468Z,75.02
2016-11-09T22:55:46.517Z,74.73
2016-11-09T22:56:46.551Z,73.48
2016-11-09T22:57:46.629Z,74.64
2016-11-09T22:58:46.688Z,75.89
2016-11-09T22:59:46.717Z,74.73
2016-11-09T23:00:46.785Z,76.18
2016-11-09T23:01:46.833Z,76.37
2016-11-09T23:02:46.877Z,74.93
2016-11-09T23:03:46.966Z,74.89
2016-11-09T23:04:47.508Z,75.09
2016-11-09T23:05:47.068Z,75.57
2016-11-09T23:06:47.623Z,75.7
2016-11-09T23:07:47.156Z,74.64
2016-11-09T23:08:47.200Z,74.93
2016-11-09T23:09:47.216Z,75.6
2016-11-09T23:10:47.799Z,74.73
2016-11-09T23:11:47.358Z,74.93
2016-11-09T23:12:47.396Z,74.89
2016-11-09T23:13:47.448Z,75.47
2016-11-09T23:14:47.514Z,74.89
2016-11-09T23:15:47.581Z,74.31
2016-11-09T23:16:47.595Z,75.09
2016-11-09T23:17:47.675Z,75.47
2016-11-09T23:18:47.691Z,76.09
2016-11-09T23:19:47.764Z,76.24
2016-11-09T23:20:47.821Z,76.63
2016-11-09T23:21:47.836Z,76.72
2016-11-09T23:22:47.899Z,76.43
2016-11-09T23:23:47.976Z,76.05
2016-11-09T23:24:48.003Z,76.34
2016-11-09T23:25:48.072Z,76.15
2016-11-09T23:26:48.127Z,76.43
2016-11-09T23:27:48.171Z,76.34
2016-11-09T23:28:48.227Z,75.76
2016-11-09T23:29:48.279Z,75.99
2016-11-09T23:30:48.332Z,76.34
2016-11-09T23:31:48.364Z,77.05
2016-11-09T23:32:48.421Z,75.76
2016-11-09T23:33:48.475Z,76.15
2016-11-09T23:34:48.526Z,75.95
2016-11-09T23:35:48.558Z,76.34
2016-11-09T23:36:48.636Z,76.63
2016-11-09T23:37:48.686Z,75.85
2016-11-09T23:38:48.734Z,76.63
2016-11-09T23:39:48.785Z,76.15
2016-11-09T23:40:48.836Z,76.47
2016-11-09T23:41:48.915Z,75.37
2016-11-09T23:42:48.926Z,76.43
2016-11-09T23:43:49.023Z,76.34
2016-11-09T23:44:49.052Z,77.01
2016-11-09T23:45:49.111Z,76.43
2016-11-09T23:46:49.132Z,76.82
2016-11-09T23:47:49.218Z,76.53
2016-11-09T23:48:49.271Z,76.43
2016-11-09T23:49:49.299Z,76.92
2016-11-09T23:50:49.378Z,76.24
2016-11-09T23:51:49.410Z,76.53
2016-11-09T23:52:49.474Z,77.4
2016-11-09T23:53:49.499Z,77.11
2016-11-09T23:54:49.542Z,76.92
2016-11-09T23:55:49.626Z,77.78
2016-11-09T23:56:49.655Z,77.11
2016-11-09T23:57:49.711Z,77.88
2016-11-09T23:58:49.768Z,77.59
2016-11-09T23:59:49.848Z,77.69
